sensor_id;sensor_type;location;lat;lon;timestamp;pressure;altitude;pressure_sealevel;temperature;humidity
58245;BME280;44550;43.864;25.986;2023-04-22T00:01:51;100829.38;;;13.88;94.54
58245;BME280;44550;43.864;25.986;2023-04-22T00:05:57;100823.22;;;13.92;94.39
58245;BME280;44550;43.864;25.986;2023-04-22T00:10:13;100824.19;;;13.75;95.76
58245;BME280;44550;43.864;25.986;2023-04-22T00:14:26;100823.31;;;13.75;95.96
58245;BME280;44550;43.864;25.986;2023-04-22T00:18:36;100827.72;;;13.60;97.62
58245;BME280;44550;43.864;25.986;2023-04-22T00:22:48;100824.22;;;13.60;97.74
58245;BME280;44550;43.864;25.986;2023-04-22T00:32:03;100807.72;;;13.27;98.40
58245;BME280;44550;43.864;25.986;2023-04-22T00:36:23;100826.09;;;13.21;99.62
58245;BME280;44550;43.864;25.986;2023-04-22T00:40:25;100839.22;;;13.24;99.30
58245;BME280;44550;43.864;25.986;2023-04-22T00:44:36;100836.59;;;13.32;99.24
58245;BME280;44550;43.864;25.986;2023-04-22T00:48:46;100835.72;;;13.39;98.85
58245;BME280;44550;43.864;25.986;2023-04-22T00:53:00;100838.25;;;13.59;97.24
58245;BME280;44550;43.864;25.986;2023-04-22T00:57:05;100836.53;;;13.55;97.11
58245;BME280;44550;43.864;25.986;2023-04-22T01:01:10;100835.59;;;13.63;96.88
58245;BME280;44550;43.864;25.986;2023-04-22T01:05:28;100826.88;;;13.51;96.75
58245;BME280;44550;43.864;25.986;2023-04-22T01:09:44;100822.34;;;13.90;94.33
58245;BME280;44550;43.864;25.986;2023-04-22T01:18:14;100834.53;;;14.07;92.34
58245;BME280;44550;43.864;25.986;2023-04-22T01:22:23;100843.16;;;14.23;92.19
58245;BME280;44550;43.864;25.986;2023-04-22T01:26:29;100846.50;;;14.54;89.56
58245;BME280;44550;43.864;25.986;2023-04-22T01:30:30;100839.53;;;14.50;89.62
58245;BME280;44550;43.864;25.986;2023-04-22T01:34:39;100838.69;;;14.36;90.19
58245;BME280;44550;43.864;25.986;2023-04-22T01:38:42;100829.19;;;14.14;91.88
58245;BME280;44550;43.864;25.986;2023-04-22T01:43:06;100828.41;;;14.02;92.32
58245;BME280;44550;43.864;25.986;2023-04-22T01:47:32;100822.25;;;14.03;93.01
58245;BME280;44550;43.864;25.986;2023-04-22T01:52:07;100819.47;;;14.28;91.68
58245;BME280;44550;43.864;25.986;2023-04-22T01:56:12;100816.94;;;14.13;91.11
58245;BME280;44550;43.864;25.986;2023-04-22T02:00:33;100818.88;;;13.88;91.72
58245;BME280;44550;43.864;25.986;2023-04-22T02:04:48;100817.09;;;13.91;92.12
58245;BME280;44550;43.864;25.986;2023-04-22T02:09:04;100814.41;;;13.96;91.38
58245;BME280;44550;43.864;25.986;2023-04-22T02:13:18;100811.75;;;14.03;90.49
58245;BME280;44550;43.864;25.986;2023-04-22T02:17:37;100804.78;;;13.98;91.56
58245;BME280;44550;43.864;25.986;2023-04-22T02:21:55;100806.63;;;13.82;91.90
58245;BME280;44550;43.864;25.986;2023-04-22T02:30:16;100800.72;;;13.32;94.58
58245;BME280;44550;43.864;25.986;2023-04-22T02:34:26;100804.22;;;13.34;95.04
58245;BME280;44550;43.864;25.986;2023-04-22T02:38:37;100800.59;;;13.65;93.51
58245;BME280;44550;43.864;25.986;2023-04-22T02:42:38;100796.06;;;13.86;91.48
58245;BME280;44550;43.864;25.986;2023-04-22T02:46:45;100803.94;;;13.90;91.22
58245;BME280;44550;43.864;25.986;2023-04-22T02:50:49;100809.13;;;14.02;91.67
58245;BME280;44550;43.864;25.986;2023-04-22T02:54:51;100808.84;;;14.42;89.44
58245;BME280;44550;43.864;25.986;2023-04-22T02:58:53;100799.16;;;14.51;88.55
58245;BME280;44550;43.864;25.986;2023-04-22T03:02:52;100807.91;;;14.53;88.68
58245;BME280;44550;43.864;25.986;2023-04-22T03:06:56;100806.00;;;14.69;88.31
58245;BME280;44550;43.864;25.986;2023-04-22T03:11:02;100808.50;;;14.83;87.84
58245;BME280;44550;43.864;25.986;2023-04-22T03:15:08;100809.91;;;15.16;85.45
58245;BME280;44550;43.864;25.986;2023-04-22T03:19:23;100789.88;;;15.04;85.84
58245;BME280;44550;43.864;25.986;2023-04-22T03:23:30;100809.28;;;14.94;85.75
58245;BME280;44550;43.864;25.986;2023-04-22T03:27:37;100811.25;;;14.72;86.90
58245;BME280;44550;43.864;25.986;2023-04-22T03:31:40;100810.50;;;14.56;88.16
58245;BME280;44550;43.864;25.986;2023-04-22T03:35:54;100819.31;;;14.52;88.75
58245;BME280;44550;43.864;25.986;2023-04-22T03:39:58;100828.38;;;14.08;90.56
58245;BME280;44550;43.864;25.986;2023-04-22T03:43:59;100830.28;;;13.82;94.29
58245;BME280;44550;43.864;25.986;2023-04-22T03:48:01;100846.91;;;13.85;94.18
58245;BME280;44550;43.864;25.986;2023-04-22T03:52:03;100855.69;;;13.81;95.84
58245;BME280;44550;43.864;25.986;2023-04-22T03:56:12;100862.75;;;13.72;96.27
58245;BME280;44550;43.864;25.986;2023-04-22T04:00:13;100871.47;;;13.77;96.96
58245;BME280;44550;43.864;25.986;2023-04-22T04:04:17;100873.19;;;13.84;96.80
58245;BME280;44550;43.864;25.986;2023-04-22T04:08:19;100866.94;;;14.08;95.67
58245;BME280;44550;43.864;25.986;2023-04-22T04:12:24;100876.50;;;14.24;94.56
58245;BME280;44550;43.864;25.986;2023-04-22T04:16:26;100885.16;;;14.42;92.70
58245;BME280;44550;43.864;25.986;2023-04-22T04:25:00;100893.03;;;14.45;92.18
58245;BME280;44550;43.864;25.986;2023-04-22T04:29:06;100912.16;;;14.71;90.05
58245;BME280;44550;43.864;25.986;2023-04-22T04:33:14;100908.56;;;14.85;89.56
58245;BME280;44550;43.864;25.986;2023-04-22T04:37:16;100918.41;;;14.53;87.55
58245;BME280;44550;43.864;25.986;2023-04-22T04:41:25;100920.19;;;14.47;88.06
58245;BME280;44550;43.864;25.986;2023-04-22T04:45:37;100922.84;;;14.44;88.92
58245;BME280;44550;43.864;25.986;2023-04-22T04:49:49;100932.25;;;14.85;86.14
58245;BME280;44550;43.864;25.986;2023-04-22T04:53:56;100939.84;;;15.18;84.43
58245;BME280;44550;43.864;25.986;2023-04-22T04:58:03;100939.00;;;15.18;82.80
58245;BME280;44550;43.864;25.986;2023-04-22T05:02:18;100940.28;;;15.69;82.76
58245;BME280;44550;43.864;25.986;2023-04-22T05:06:26;100946.59;;;16.27;77.98
58245;BME280;44550;43.864;25.986;2023-04-22T05:10:36;100945.78;;;16.85;76.01
58245;BME280;44550;43.864;25.986;2023-04-22T05:15:00;100952.78;;;16.88;74.14
58245;BME280;44550;43.864;25.986;2023-04-22T05:19:14;100960.63;;;16.93;73.07
58245;BME280;44550;43.864;25.986;2023-04-22T05:23:20;100969.44;;;16.28;75.42
58245;BME280;44550;43.864;25.986;2023-04-22T05:27:25;100964.84;;;15.73;78.57
58245;BME280;44550;43.864;25.986;2023-04-22T05:31:27;100975.63;;;15.45;80.27
58245;BME280;44550;43.864;25.986;2023-04-22T05:35:42;100979.31;;;15.23;81.87
58245;BME280;44550;43.864;25.986;2023-04-22T05:39:53;100980.34;;;15.05;82.69
58245;BME280;44550;43.864;25.986;2023-04-22T05:43:59;100973.34;;;15.02;83.39
58245;BME280;44550;43.864;25.986;2023-04-22T05:48:03;100972.56;;;14.91;84.64
58245;BME280;44550;43.864;25.986;2023-04-22T05:52:07;100974.56;;;14.46;87.76
58245;BME280;44550;43.864;25.986;2023-04-22T05:56:16;100972.88;;;14.33;87.98
58245;BME280;44550;43.864;25.986;2023-04-22T06:00:17;100979.78;;;14.59;87.66
58245;BME280;44550;43.864;25.986;2023-04-22T06:04:28;100983.97;;;14.93;87.06
58245;BME280;44550;43.864;25.986;2023-04-22T06:08:37;100990.06;;;15.00;88.55
58245;BME280;44550;43.864;25.986;2023-04-22T06:12:39;100998.72;;;15.13;85.03
58245;BME280;44550;43.864;25.986;2023-04-22T06:16:39;101008.47;;;15.01;90.05
58245;BME280;44550;43.864;25.986;2023-04-22T06:20:39;101014.91;;;14.47;93.63
58245;BME280;44550;43.864;25.986;2023-04-22T06:24:41;101027.22;;;14.39;95.90
58245;BME280;44550;43.864;25.986;2023-04-22T06:28:48;101043.91;;;14.30;90.62
58245;BME280;44550;43.864;25.986;2023-04-22T06:32:52;101041.38;;;14.04;89.30
58245;BME280;44550;43.864;25.986;2023-04-22T06:36:54;101043.94;;;14.19;89.66
58245;BME280;44550;43.864;25.986;2023-04-22T06:41:09;101050.91;;;14.39;85.73
58245;BME280;44550;43.864;25.986;2023-04-22T06:45:14;101057.03;;;14.41;85.67
58245;BME280;44550;43.864;25.986;2023-04-22T06:49:17;101051.66;;;14.74;83.45
58245;BME280;44550;43.864;25.986;2023-04-22T06:53:26;101057.59;;;15.06;81.37
58245;BME280;44550;43.864;25.986;2023-04-22T06:57:32;101060.94;;;15.34;80.65
58245;BME280;44550;43.864;25.986;2023-04-22T07:01:39;101060.53;;;15.83;77.55
58245;BME280;44550;43.864;25.986;2023-04-22T07:05:43;101059.97;;;16.36;74.84
58245;BME280;44550;43.864;25.986;2023-04-22T07:09:48;101053.06;;;16.96;63.71
58245;BME280;44550;43.864;25.986;2023-04-22T07:13:51;101062.78;;;16.90;54.84
58245;BME280;44550;43.864;25.986;2023-04-22T07:18:11;101069.34;;;16.60;54.23
58245;BME280;44550;43.864;25.986;2023-04-22T07:22:11;101062.03;;;16.08;57.41
58245;BME280;44550;43.864;25.986;2023-04-22T07:26:16;101066.34;;;16.17;55.29
58245;BME280;44550;43.864;25.986;2023-04-22T07:30:19;101071.72;;;16.05;57.44
58245;BME280;44550;43.864;25.986;2023-04-22T07:34:23;101075.22;;;16.08;56.13
58245;BME280;44550;43.864;25.986;2023-04-22T07:38:28;101071.59;;;16.15;49.68
58245;BME280;44550;43.864;25.986;2023-04-22T07:42:29;101081.22;;;16.21;51.28
58245;BME280;44550;43.864;25.986;2023-04-22T07:46:31;101080.25;;;16.33;51.39
58245;BME280;44550;43.864;25.986;2023-04-22T07:50:33;101080.28;;;16.25;53.29
58245;BME280;44550;43.864;25.986;2023-04-22T07:54:35;101080.31;;;16.27;54.18
58245;BME280;44550;43.864;25.986;2023-04-22T07:58:35;101092.59;;;16.28;56.31
58245;BME280;44550;43.864;25.986;2023-04-22T08:02:38;101093.34;;;16.40;55.72
58245;BME280;44550;43.864;25.986;2023-04-22T08:06:50;101095.97;;;16.40;56.64
58245;BME280;44550;43.864;25.986;2023-04-22T08:11:14;101087.63;;;16.79;56.24
58245;BME280;44550;43.864;25.986;2023-04-22T08:15:15;101092.84;;;16.82;54.39
58245;BME280;44550;43.864;25.986;2023-04-22T08:19:18;101106.44;;;17.19;55.25
58245;BME280;44550;43.864;25.986;2023-04-22T08:23:19;101097.78;;;17.64;53.91
58245;BME280;44550;43.864;25.986;2023-04-22T08:27:20;101091.84;;;18.03;54.69
58245;BME280;44550;43.864;25.986;2023-04-22T08:31:21;101094.78;;;17.88;52.31
58245;BME280;44550;43.864;25.986;2023-04-22T08:35:24;101104.13;;;17.53;51.46
58245;BME280;44550;43.864;25.986;2023-04-22T08:39:28;101106.59;;;17.66;49.61
58245;BME280;44550;43.864;25.986;2023-04-22T08:43:37;101110.44;;;17.45;49.37
58245;BME280;44550;43.864;25.986;2023-04-22T08:47:41;101115.34;;;17.69;47.64
58245;BME280;44550;43.864;25.986;2023-04-22T08:51:44;101101.41;;;18.11;48.39
58245;BME280;44550;43.864;25.986;2023-04-22T08:55:47;101109.72;;;18.37;46.99
58245;BME280;44550;43.864;25.986;2023-04-22T08:59:56;101110.34;;;18.50;42.04
58245;BME280;44550;43.864;25.986;2023-04-22T09:03:57;101110.41;;;18.48;44.71
58245;BME280;44550;43.864;25.986;2023-04-22T09:08:10;101122.16;;;18.34;45.88
58245;BME280;44550;43.864;25.986;2023-04-22T09:12:12;101113.81;;;18.08;45.59
58245;BME280;44550;43.864;25.986;2023-04-22T09:16:20;101120.47;;;18.31;45.59
58245;BME280;44550;43.864;25.986;2023-04-22T09:20:24;101120.88;;;18.06;45.73
58245;BME280;44550;43.864;25.986;2023-04-22T09:24:27;101117.38;;;18.04;47.27
58245;BME280;44550;43.864;25.986;2023-04-22T09:28:27;101108.09;;;18.31;46.47
58245;BME280;44550;43.864;25.986;2023-04-22T09:32:30;101109.25;;;18.62;45.47
58245;BME280;44550;43.864;25.986;2023-04-22T09:36:32;101104.41;;;18.39;43.24
58245;BME280;44550;43.864;25.986;2023-04-22T09:40:36;101098.03;;;18.49;41.35
58245;BME280;44550;43.864;25.986;2023-04-22T09:44:37;101090.84;;;18.97;40.56
58245;BME280;44550;43.864;25.986;2023-04-22T09:48:41;101101.66;;;18.87;38.92
58245;BME280;44550;43.864;25.986;2023-04-22T09:52:45;101100.81;;;19.25;38.78
58245;BME280;44550;43.864;25.986;2023-04-22T09:56:55;101090.06;;;18.92;39.23
58245;BME280;44550;43.864;25.986;2023-04-22T10:00:58;101087.56;;;18.86;39.99
58245;BME280;44550;43.864;25.986;2023-04-22T10:05:01;101076.63;;;19.01;40.54
58245;BME280;44550;43.864;25.986;2023-04-22T10:09:03;101080.63;;;19.19;40.80
58245;BME280;44550;43.864;25.986;2023-04-22T10:13:08;101065.34;;;19.31;38.49
58245;BME280;44550;43.864;25.986;2023-04-22T10:17:12;101067.72;;;19.41;36.78
58245;BME280;44550;43.864;25.986;2023-04-22T10:21:13;101072.09;;;19.44;35.57
58245;BME280;44550;43.864;25.986;2023-04-22T10:25:20;101063.84;;;19.19;37.51
58245;BME280;44550;43.864;25.986;2023-04-22T10:29:27;101051.59;;;19.15;35.98
58245;BME280;44550;43.864;25.986;2023-04-22T10:33:39;101060.72;;;19.01;38.62
58245;BME280;44550;43.864;25.986;2023-04-22T10:37:41;101056.41;;;19.33;39.11
58245;BME280;44550;43.864;25.986;2023-04-22T10:41:49;101051.47;;;19.55;39.15
58245;BME280;44550;43.864;25.986;2023-04-22T10:45:53;101043.50;;;19.55;39.32
58245;BME280;44550;43.864;25.986;2023-04-22T10:50:30;101049.94;;;19.09;40.07
58245;BME280;44550;43.864;25.986;2023-04-22T10:58:51;101039.78;;;18.89;40.89
58245;BME280;44550;43.864;25.986;2023-04-22T11:03:08;101047.81;;;19.23;41.19
58245;BME280;44550;43.864;25.986;2023-04-22T11:07:12;101037.84;;;19.35;40.86
58245;BME280;44550;43.864;25.986;2023-04-22T11:11:14;101038.81;;;19.66;41.21
58245;BME280;44550;43.864;25.986;2023-04-22T11:15:17;101049.59;;;19.60;43.28
58245;BME280;44550;43.864;25.986;2023-04-22T11:19:23;101047.22;;;19.84;42.42
58245;BME280;44550;43.864;25.986;2023-04-22T11:23:29;101049.19;;;19.76;42.16
58245;BME280;44550;43.864;25.986;2023-04-22T11:27:29;101048.38;;;19.38;41.87
58245;BME280;44550;43.864;25.986;2023-04-22T11:31:34;101051.81;;;19.41;41.94
58245;BME280;44550;43.864;25.986;2023-04-22T11:35:38;101037.28;;;19.56;41.19
58245;BME280;44550;43.864;25.986;2023-04-22T11:39:41;101029.13;;;19.65;40.13
58245;BME280;44550;43.864;25.986;2023-04-22T11:44:01;101034.16;;;19.76;42.46
58245;BME280;44550;43.864;25.986;2023-04-22T11:48:09;101032.19;;;19.83;40.71
58245;BME280;44550;43.864;25.986;2023-04-22T11:52:11;101025.25;;;19.43;41.47
58245;BME280;44550;43.864;25.986;2023-04-22T11:56:13;101033.00;;;19.86;41.09
58245;BME280;44550;43.864;25.986;2023-04-22T12:00:14;101023.69;;;19.70;39.76
58245;BME280;44550;43.864;25.986;2023-04-22T12:04:14;101027.53;;;19.57;39.13
58245;BME280;44550;43.864;25.986;2023-04-22T12:08:17;101033.44;;;19.69;39.93
58245;BME280;44550;43.864;25.986;2023-04-22T12:12:18;101033.03;;;19.85;40.45
58245;BME280;44550;43.864;25.986;2023-04-22T12:16:26;101024.72;;;19.63;40.16
58245;BME280;44550;43.864;25.986;2023-04-22T12:20:30;101022.28;;;19.89;38.71
58245;BME280;44550;43.864;25.986;2023-04-22T12:24:35;101019.78;;;19.83;38.01
58245;BME280;44550;43.864;25.986;2023-04-22T12:28:42;101011.94;;;19.80;38.20
58245;BME280;44550;43.864;25.986;2023-04-22T12:32:51;101021.72;;;20.11;37.60
58245;BME280;44550;43.864;25.986;2023-04-22T12:36:52;101013.09;;;20.34;37.31
58245;BME280;44550;43.864;25.986;2023-04-22T12:40:56;101012.78;;;20.13;39.42
58245;BME280;44550;43.864;25.986;2023-04-22T12:45:00;101012.66;;;20.18;38.99
58245;BME280;44550;43.864;25.986;2023-04-22T12:49:10;101014.63;;;20.11;38.41
58245;BME280;44550;43.864;25.986;2023-04-22T12:53:20;101005.59;;;19.86;37.68
58245;BME280;44550;43.864;25.986;2023-04-22T12:57:32;101000.63;;;19.74;39.09
58245;BME280;44550;43.864;25.986;2023-04-22T13:01:33;100994.69;;;19.64;38.14
58245;BME280;44550;43.864;25.986;2023-04-22T13:05:40;101002.97;;;19.50;38.29
58245;BME280;44550;43.864;25.986;2023-04-22T13:09:42;101001.13;;;19.86;37.12
58245;BME280;44550;43.864;25.986;2023-04-22T13:13:45;100999.78;;;20.04;36.81
58245;BME280;44550;43.864;25.986;2023-04-22T13:17:46;101005.31;;;20.26;37.64
58245;BME280;44550;43.864;25.986;2023-04-22T13:21:48;101002.53;;;20.01;37.48
58245;BME280;44550;43.864;25.986;2023-04-22T13:25:51;100996.03;;;20.11;36.92
58245;BME280;44550;43.864;25.986;2023-04-22T13:29:54;100996.88;;;20.13;38.56
58245;BME280;44550;43.864;25.986;2023-04-22T13:33:59;101004.94;;;20.09;37.48
58245;BME280;44550;43.864;25.986;2023-04-22T13:38:00;101010.78;;;19.90;38.73
58245;BME280;44550;43.864;25.986;2023-04-22T13:42:08;101004.97;;;19.76;37.71
58245;BME280;44550;43.864;25.986;2023-04-22T13:46:20;101013.00;;;20.06;36.33
58245;BME280;44550;43.864;25.986;2023-04-22T13:50:21;101007.13;;;19.94;36.04
58245;BME280;44550;43.864;25.986;2023-04-22T13:54:21;101012.47;;;19.93;37.26
58245;BME280;44550;43.864;25.986;2023-04-22T13:58:24;101016.75;;;19.99;37.23
58245;BME280;44550;43.864;25.986;2023-04-22T14:02:28;101011.34;;;19.69;39.34
58245;BME280;44550;43.864;25.986;2023-04-22T14:06:32;101005.03;;;20.06;38.88
58245;BME280;44550;43.864;25.986;2023-04-22T14:10:41;101008.56;;;20.06;40.37
58245;BME280;44550;43.864;25.986;2023-04-22T14:14:41;101008.56;;;20.06;38.84
58245;BME280;44550;43.864;25.986;2023-04-22T14:18:58;101013.50;;;20.20;39.38
58245;BME280;44550;43.864;25.986;2023-04-22T14:23:14;101018.53;;;19.98;38.50
58245;BME280;44550;43.864;25.986;2023-04-22T14:27:14;101023.16;;;19.90;38.92
58245;BME280;44550;43.864;25.986;2023-04-22T14:31:15;101017.59;;;19.99;39.29
58245;BME280;44550;43.864;25.986;2023-04-22T14:35:19;101025.78;;;19.91;38.39
58245;BME280;44550;43.864;25.986;2023-04-22T14:39:22;101022.19;;;19.94;38.50
58245;BME280;44550;43.864;25.986;2023-04-22T14:43:29;101027.38;;;20.30;38.27
58245;BME280;44550;43.864;25.986;2023-04-22T14:47:32;101032.97;;;20.19;37.71
58245;BME280;44550;43.864;25.986;2023-04-22T14:51:53;101030.94;;;19.63;38.01
58245;BME280;44550;43.864;25.986;2023-04-22T14:56:00;101037.34;;;19.55;38.92
58245;BME280;44550;43.864;25.986;2023-04-22T15:00:08;101033.03;;;19.51;38.20
58245;BME280;44550;43.864;25.986;2023-04-22T15:04:17;101027.09;;;19.75;39.05
58245;BME280;44550;43.864;25.986;2023-04-22T15:08:23;101027.97;;;19.76;38.86
58245;BME280;44550;43.864;25.986;2023-04-22T15:12:29;101019.84;;;19.82;38.99
58245;BME280;44550;43.864;25.986;2023-04-22T15:16:29;101025.94;;;19.87;38.54
58245;BME280;44550;43.864;25.986;2023-04-22T15:20:50;101020.25;;;19.66;39.12
58245;BME280;44550;43.864;25.986;2023-04-22T15:24:53;101022.72;;;19.38;39.49
58245;BME280;44550;43.864;25.986;2023-04-22T15:28:55;101012.25;;;19.34;40.43
58245;BME280;44550;43.864;25.986;2023-04-22T15:32:58;101012.19;;;19.35;40.17
58245;BME280;44550;43.864;25.986;2023-04-22T15:37:18;101025.66;;;19.26;39.76
58245;BME280;44550;43.864;25.986;2023-04-22T15:53:30;101030.75;;;20.04;39.16
58245;BME280;44550;43.864;25.986;2023-04-22T15:57:37;101030.75;;;20.04;39.16
58245;BME280;44550;43.864;25.986;2023-04-22T16:01:40;101037.63;;;19.42;40.48
58245;BME280;44550;43.864;25.986;2023-04-22T16:05:47;101041.56;;;19.28;40.90
58245;BME280;44550;43.864;25.986;2023-04-22T16:09:52;101057.22;;;18.99;42.15
58245;BME280;44550;43.864;25.986;2023-04-22T16:13:55;101052.97;;;18.92;42.76
58245;BME280;44550;43.864;25.986;2023-04-22T16:17:57;101055.16;;;18.73;42.75
58245;BME280;44550;43.864;25.986;2023-04-22T16:21:57;101061.38;;;18.71;43.50
58245;BME280;44550;43.864;25.986;2023-04-22T16:26:01;101070.50;;;18.56;43.68
58245;BME280;44550;43.864;25.986;2023-04-22T16:30:05;101071.66;;;18.44;44.60
58245;BME280;44550;43.864;25.986;2023-04-22T16:34:06;101068.38;;;18.31;44.71
58245;BME280;44550;43.864;25.986;2023-04-22T16:38:06;101074.06;;;18.12;45.26
58245;BME280;44550;43.864;25.986;2023-04-22T16:42:12;101072.34;;;18.09;45.97
58245;BME280;44550;43.864;25.986;2023-04-22T16:46:14;101072.38;;;18.06;46.11
58245;BME280;44550;43.864;25.986;2023-04-22T16:50:18;101081.25;;;18.03;46.59
58245;BME280;44550;43.864;25.986;2023-04-22T16:54:23;101074.94;;;18.11;47.18
58245;BME280;44550;43.864;25.986;2023-04-22T16:58:29;101084.91;;;17.96;48.29
58245;BME280;44550;43.864;25.986;2023-04-22T17:02:32;101086.94;;;17.80;48.97
58245;BME280;44550;43.864;25.986;2023-04-22T17:06:33;101095.84;;;17.76;49.30
58245;BME280;44550;43.864;25.986;2023-04-22T17:10:36;101096.88;;;17.66;49.68
58245;BME280;44550;43.864;25.986;2023-04-22T17:14:45;101098.75;;;17.59;50.41
58245;BME280;44550;43.864;25.986;2023-04-22T17:18:49;101099.63;;;17.60;50.68
58245;BME280;44550;43.864;25.986;2023-04-22T17:22:49;101104.91;;;17.60;51.08
58245;BME280;44550;43.864;25.986;2023-04-22T17:26:59;101113.69;;;17.62;50.83
58245;BME280;44550;43.864;25.986;2023-04-22T17:31:05;101110.25;;;17.57;51.04
58245;BME280;44550;43.864;25.986;2023-04-22T17:35:16;101119.09;;;17.54;51.59
58245;BME280;44550;43.864;25.986;2023-04-22T17:39:16;101118.16;;;17.58;51.66
58245;BME280;44550;43.864;25.986;2023-04-22T17:43:19;101120.00;;;17.55;51.88
58245;BME280;44550;43.864;25.986;2023-04-22T17:47:22;101117.44;;;17.47;52.13
58245;BME280;44550;43.864;25.986;2023-04-22T17:51:24;101133.34;;;17.44;53.01
58245;BME280;44550;43.864;25.986;2023-04-22T17:55:28;101143.19;;;17.36;53.46
58245;BME280;44550;43.864;25.986;2023-04-22T17:59:31;101146.75;;;17.33;53.33
58245;BME280;44550;43.864;25.986;2023-04-22T18:03:33;101147.66;;;17.31;53.41
58245;BME280;44550;43.864;25.986;2023-04-22T18:07:34;101148.75;;;17.14;54.64
58245;BME280;44550;43.864;25.986;2023-04-22T18:11:34;101153.41;;;16.97;55.08
58245;BME280;44550;43.864;25.986;2023-04-22T18:15:34;101157.16;;;16.79;56.15
58245;BME280;44550;43.864;25.986;2023-04-22T18:19:41;101167.00;;;16.62;54.83
58245;BME280;44550;43.864;25.986;2023-04-22T18:23:43;101166.75;;;15.98;56.99
58245;BME280;44550;43.864;25.986;2023-04-22T18:27:45;101171.34;;;15.66;58.61
58245;BME280;44550;43.864;25.986;2023-04-22T18:31:46;101175.75;;;15.65;59.76
58245;BME280;44550;43.864;25.986;2023-04-22T18:35:48;101167.97;;;15.53;60.13
58245;BME280;44550;43.864;25.986;2023-04-22T18:39:47;101172.41;;;15.42;60.42
58245;BME280;44550;43.864;25.986;2023-04-22T18:43:48;101172.34;;;15.51;60.39
58245;BME280;44550;43.864;25.986;2023-04-22T18:47:47;101171.34;;;15.66;59.33
58245;BME280;44550;43.864;25.986;2023-04-22T18:51:49;101181.00;;;15.76;59.13
58245;BME280;44550;43.864;25.986;2023-04-22T18:55:49;101183.72;;;15.67;58.40
58245;BME280;44550;43.864;25.986;2023-04-22T18:59:49;101181.19;;;15.42;59.44
58245;BME280;44550;43.864;25.986;2023-04-22T19:03:50;101188.34;;;15.16;60.83
58245;BME280;44550;43.864;25.986;2023-04-22T19:07:52;101181.47;;;14.87;61.44
58245;BME280;44550;43.864;25.986;2023-04-22T19:11:52;101179.75;;;14.72;61.51
58245;BME280;44550;43.864;25.986;2023-04-22T19:15:54;101184.19;;;14.67;61.78
58245;BME280;44550;43.864;25.986;2023-04-22T19:19:54;101181.53;;;14.69;61.77
58245;BME280;44550;43.864;25.986;2023-04-22T19:23:56;101178.00;;;14.77;61.31
58245;BME280;44550;43.864;25.986;2023-04-22T19:27:58;101178.84;;;14.84;61.08
58245;BME280;44550;43.864;25.986;2023-04-22T19:31:58;101173.56;;;14.89;60.87
58245;BME280;44550;43.864;25.986;2023-04-22T19:36:02;101168.31;;;14.90;60.91
58245;BME280;44550;43.864;25.986;2023-04-22T19:40:05;101174.44;;;14.86;60.72
58245;BME280;44550;43.864;25.986;2023-04-22T19:44:06;101177.91;;;15.03;61.03
58245;BME280;44550;43.864;25.986;2023-04-22T19:48:06;101177.81;;;15.19;60.09
58245;BME280;44550;43.864;25.986;2023-04-22T19:52:07;101181.22;;;15.38;59.96
58245;BME280;44550;43.864;25.986;2023-04-22T19:56:11;101179.28;;;15.69;59.44
58245;BME280;44550;43.864;25.986;2023-04-22T20:00:12;101184.56;;;15.70;59.45
58245;BME280;44550;43.864;25.986;2023-04-22T20:04:13;101188.25;;;15.33;60.73
58245;BME280;44550;43.864;25.986;2023-04-22T20:08:18;101184.75;;;15.35;61.16
58245;BME280;44550;43.864;25.986;2023-04-22T20:12:20;101190.78;;;15.52;60.82
58245;BME280;44550;43.864;25.986;2023-04-22T20:16:23;101179.34;;;15.58;60.21
58245;BME280;44550;43.864;25.986;2023-04-22T20:20:24;101183.81;;;15.45;60.38
58245;BME280;44550;43.864;25.986;2023-04-22T20:24:25;101186.47;;;15.36;62.07
58245;BME280;44550;43.864;25.986;2023-04-22T20:28:33;101192.75;;;15.12;62.72
58245;BME280;44550;43.864;25.986;2023-04-22T20:32:40;101179.72;;;14.83;62.53
58245;BME280;44550;43.864;25.986;2023-04-22T20:36:40;101180.63;;;14.76;62.61
58245;BME280;44550;43.864;25.986;2023-04-22T20:40:46;101185.03;;;14.77;62.76
58245;BME280;44550;43.864;25.986;2023-04-22T20:44:49;101186.75;;;14.87;62.70
58245;BME280;44550;43.864;25.986;2023-04-22T20:48:50;101192.00;;;14.87;63.25
58245;BME280;44550;43.864;25.986;2023-04-22T20:52:50;101196.34;;;14.96;62.70
58245;BME280;44550;43.864;25.986;2023-04-22T20:56:51;101196.34;;;14.99;61.80
58245;BME280;44550;43.864;25.986;2023-04-22T21:00:57;101202.44;;;15.06;61.18
58245;BME280;44550;43.864;25.986;2023-04-22T21:04:58;101206.81;;;15.14;61.70
58245;BME280;44550;43.864;25.986;2023-04-22T21:09:00;101218.94;;;15.43;61.15
58245;BME280;44550;43.864;25.986;2023-04-22T21:13:05;101213.50;;;15.78;60.04
58245;BME280;44550;43.864;25.986;2023-04-22T21:17:13;101209.91;;;15.88;59.52
58245;BME280;44550;43.864;25.986;2023-04-22T21:21:16;101210.81;;;15.84;60.17
58245;BME280;44550;43.864;25.986;2023-04-22T21:25:19;101206.47;;;15.76;59.44
58245;BME280;44550;43.864;25.986;2023-04-22T21:29:23;101209.28;;;15.46;62.01
58245;BME280;44550;43.864;25.986;2023-04-22T21:33:29;101174.50;;;14.77;64.03
58245;BME280;44550;43.864;25.986;2023-04-22T21:37:30;101208.69;;;14.85;64.82
58245;BME280;44550;43.864;25.986;2023-04-22T21:41:31;101206.88;;;14.93;64.38